createdAt,value
2023-02-07T00:01:36.766Z,1.67
2023-02-07T00:04:05.158Z,2.43
2023-02-07T00:06:35.838Z,1.73
2023-02-07T00:09:07.102Z,1.95
2023-02-07T00:11:40.260Z,2.65
2023-02-07T00:14:09.685Z,3.28
2023-02-07T00:16:38.262Z,3.92
2023-02-07T00:19:06.821Z,3.28
2023-02-07T00:21:35.117Z,2.22
2023-02-07T00:24:03.272Z,2.15
2023-02-07T00:26:32.046Z,2.13
2023-02-07T00:29:01.636Z,2.83
2023-02-07T00:31:32.014Z,1.58
2023-02-07T00:34:04.802Z,5.38
2023-02-07T00:36:34.655Z,4.28
2023-02-07T00:39:05.924Z,2.65
2023-02-07T00:41:35.159Z,2.22
2023-02-07T00:44:05.637Z,1.60
2023-02-07T00:46:34.784Z,1.98
2023-02-07T00:49:03.180Z,1.55
2023-02-07T00:51:31.944Z,1.45
2023-02-07T00:54:00.331Z,3.58
2023-02-07T00:56:30.256Z,4.88
2023-02-07T00:58:59.652Z,2.88
2023-02-07T01:01:29.426Z,2.15
2023-02-07T01:03:58.681Z,6.57
2023-02-07T01:06:27.934Z,6.55
2023-02-07T01:08:59.130Z,2.78
2023-02-07T01:11:30.187Z,2.95
2023-02-07T01:16:32.079Z,1.85
2023-02-07T01:19:02.333Z,4.15
2023-02-07T01:21:31.032Z,4.18
2023-02-07T01:23:59.346Z,2.17
2023-02-07T01:26:28.982Z,2.70
2023-02-07T01:28:57.827Z,1.25
2023-02-07T01:31:28.736Z,2.23
2023-02-07T01:34:00.389Z,1.73
2023-02-07T01:36:29.957Z,2.63
2023-02-07T01:38:58.718Z,2.28
2023-02-07T01:41:28.169Z,3.90
2023-02-07T01:44:02.177Z,3.60
2023-02-07T01:46:32.034Z,4.53
2023-02-07T01:49:05.064Z,3.35
2023-02-07T01:51:34.065Z,2.80
2023-02-07T01:54:09.556Z,2.92
2023-02-07T01:56:42.273Z,3.72
2023-02-07T01:59:11.579Z,1.70
2023-02-07T02:01:43.113Z,1.30
2023-02-07T02:04:13.038Z,3.00
2023-02-07T02:09:13.824Z,1.98
2023-02-07T02:12:23.997Z,2.40
2023-02-07T02:15:06.813Z,2.75
2023-02-07T02:17:50.163Z,3.28
2023-02-07T02:20:58.512Z,2.88
2023-02-07T02:23:42.536Z,2.90
2023-02-07T02:26:35.464Z,3.40
2023-02-07T02:29:38.309Z,3.33
2023-02-07T02:32:54.303Z,2.15
2023-02-07T02:35:29.002Z,2.25
2023-02-07T02:38:09.740Z,1.60
2023-02-07T02:40:45.580Z,4.78
2023-02-07T02:43:19.705Z,2.13
2023-02-07T02:45:55.464Z,2.97
2023-02-07T02:48:34.491Z,3.22
2023-02-07T02:51:03.061Z,3.90
2023-02-07T02:53:31.673Z,4.63
2023-02-07T02:56:25.580Z,3.65
2023-02-07T02:59:22.548Z,8.05
2023-02-07T03:01:56.643Z,4.82
2023-02-07T03:04:58.757Z,2.88
2023-02-07T03:07:45.054Z,4.38
2023-02-07T03:10:24.619Z,4.15
2023-02-07T03:13:02.397Z,4.05
2023-02-07T03:15:42.289Z,8.27
2023-02-07T03:18:16.355Z,5.43
2023-02-07T03:20:51.617Z,6.55
2023-02-07T03:23:22.174Z,4.22
2023-02-07T03:25:53.836Z,2.63
2023-02-07T03:28:24.693Z,5.65
2023-02-07T03:30:56.919Z,4.70
2023-02-07T03:33:26.289Z,4.57
2023-02-07T03:36:02.135Z,3.83
2023-02-07T03:38:30.422Z,6.57
2023-02-07T03:41:03.262Z,3.38
2023-02-07T03:43:34.555Z,3.58
2023-02-07T03:46:02.845Z,8.68
2023-02-07T03:48:31.421Z,6.78
2023-02-07T03:51:01.084Z,4.40
2023-02-07T03:53:29.325Z,5.93
2023-02-07T03:55:57.593Z,3.70
2023-02-07T03:58:25.930Z,8.05
2023-02-07T04:00:54.081Z,8.32
2023-02-07T04:03:22.325Z,7.55
2023-02-07T04:05:50.677Z,4.30
2023-02-07T04:08:20.166Z,7.18
2023-02-07T04:10:58.066Z,7.18
2023-02-07T04:13:26.625Z,4.47
2023-02-07T04:15:54.888Z,3.25
2023-02-07T04:18:23.226Z,4.40
2023-02-07T04:20:51.373Z,6.25
2023-02-07T04:23:20.967Z,6.00
2023-02-07T04:25:49.312Z,6.97
2023-02-07T04:28:17.807Z,7.00
2023-02-07T04:30:46.187Z,8.95
2023-02-07T04:33:14.755Z,4.75
2023-02-07T04:35:42.883Z,9.25
2023-02-07T04:38:11.047Z,5.35
2023-02-07T04:40:41.291Z,9.35
2023-02-07T04:43:09.463Z,4.65
2023-02-07T04:45:37.923Z,4.03
2023-02-07T04:48:06.898Z,6.32
2023-02-07T04:50:35.300Z,3.43
2023-02-07T04:53:03.416Z,6.00
2023-02-07T04:55:31.798Z,4.05
2023-02-07T04:58:01.214Z,8.15
2023-02-07T05:00:29.337Z,3.85
2023-02-07T05:03:00.403Z,7.32
2023-02-07T05:05:29.114Z,5.13
2023-02-07T05:07:57.245Z,14.80
2023-02-07T05:10:25.540Z,5.30
2023-02-07T05:12:53.792Z,7.60
2023-02-07T05:15:23.874Z,9.10
2023-02-07T05:17:52.591Z,3.80
2023-02-07T05:20:21.161Z,7.75
2023-02-07T05:22:49.242Z,3.90
2023-02-07T05:25:18.284Z,6.40
2023-02-07T05:27:46.444Z,6.60
2023-02-07T05:30:15.477Z,9.65
2023-02-07T05:33:02.370Z,6.28
2023-02-07T05:35:30.655Z,5.10
2023-02-07T05:37:59.205Z,6.43
2023-02-07T05:40:27.996Z,2.78
2023-02-07T05:42:56.459Z,5.87
2023-02-07T05:45:24.939Z,7.43
2023-02-07T05:47:54.459Z,5.45
2023-02-07T05:50:22.896Z,12.25
2023-02-07T05:52:51.077Z,7.30
2023-02-07T05:55:20.067Z,6.68
2023-02-07T05:57:48.466Z,7.22
2023-02-07T06:00:19.053Z,7.75
2023-02-07T06:02:47.600Z,4.75
2023-02-07T06:05:20.437Z,7.20
2023-02-07T06:07:48.965Z,6.75
2023-02-07T06:10:19.719Z,6.78
2023-02-07T06:12:49.644Z,5.38
2023-02-07T06:15:17.872Z,5.88
2023-02-07T06:17:46.085Z,5.60
2023-02-07T06:20:17.001Z,4.90
2023-02-07T06:22:49.633Z,5.47
2023-02-07T06:25:21.401Z,8.02
2023-02-07T06:27:49.741Z,9.80
2023-02-07T06:30:18.875Z,7.07
2023-02-07T06:32:50.153Z,10.23
2023-02-07T06:35:18.831Z,8.48
2023-02-07T06:37:48.215Z,9.32
2023-02-07T06:40:16.580Z,13.18
2023-02-07T06:42:46.117Z,4.80
2023-02-07T06:45:14.268Z,8.48
2023-02-07T06:47:42.462Z,9.20
2023-02-07T06:50:10.717Z,8.63
2023-02-07T06:52:38.953Z,8.60
2023-02-07T06:55:09.751Z,8.13
2023-02-07T06:57:38.346Z,8.05
2023-02-07T07:00:07.242Z,5.47
2023-02-07T07:02:35.909Z,8.15
2023-02-07T07:05:04.684Z,6.43
2023-02-07T07:07:32.873Z,5.67
2023-02-07T07:10:02.054Z,12.82
2023-02-07T07:12:31.825Z,7.10
2023-02-07T07:15:00.018Z,7.97
2023-02-07T07:17:28.116Z,24.77
2023-02-07T07:19:56.436Z,5.70
2023-02-07T07:22:25.554Z,5.47
2023-02-07T07:24:53.717Z,6.07
2023-02-07T07:27:21.844Z,8.25
2023-02-07T07:29:51.508Z,10.13
2023-02-07T07:35:02.248Z,6.95
2023-02-07T07:37:30.418Z,9.93
2023-02-07T07:39:58.534Z,8.10
2023-02-07T07:42:26.759Z,7.57
2023-02-07T07:45:13.346Z,9.55
2023-02-07T07:47:41.793Z,9.60
2023-02-07T07:50:10.390Z,7.53
2023-02-07T07:52:38.711Z,8.23
2023-02-07T07:55:07.777Z,7.40
2023-02-07T07:57:36.420Z,9.50
2023-02-07T08:00:06.326Z,5.90
2023-02-07T08:02:43.712Z,5.07
2023-02-07T08:05:13.783Z,10.15
2023-02-07T08:07:42.504Z,6.80
2023-02-07T08:10:10.984Z,6.40
2023-02-07T08:12:39.114Z,10.98
2023-02-07T08:15:09.754Z,6.70
2023-02-07T08:17:38.174Z,7.35
2023-02-07T08:20:09.614Z,9.50
2023-02-07T08:22:38.032Z,8.15
2023-02-07T08:25:07.589Z,10.10
2023-02-07T08:27:36.205Z,8.60
2023-02-07T08:30:06.369Z,7.63
2023-02-07T08:32:34.922Z,12.02
2023-02-07T08:35:03.151Z,7.88
2023-02-07T08:37:32.823Z,9.57
2023-02-07T08:40:00.942Z,7.65
2023-02-07T08:42:29.100Z,7.50
2023-02-07T08:44:57.979Z,6.35
2023-02-07T08:47:26.652Z,4.77
2023-02-07T08:49:54.851Z,10.95
2023-02-07T08:52:24.378Z,5.32
2023-02-07T08:54:53.933Z,11.13
2023-02-07T08:57:25.676Z,8.95
2023-02-07T08:59:54.198Z,12.25
2023-02-07T09:02:22.595Z,9.35
2023-02-07T09:04:51.735Z,4.45
2023-02-07T09:07:21.526Z,6.40
2023-02-07T09:09:49.793Z,8.93
2023-02-07T09:12:19.471Z,8.50
2023-02-07T09:17:15.870Z,9.68
2023-02-07T09:19:44.133Z,7.05
2023-02-07T09:22:12.248Z,8.55
2023-02-07T09:24:40.420Z,10.85
2023-02-07T09:27:08.655Z,13.60
2023-02-07T09:29:38.527Z,6.20
2023-02-07T09:32:06.706Z,6.47
2023-02-07T09:34:35.143Z,7.47
2023-02-07T09:37:03.526Z,7.90
2023-02-07T09:39:32.953Z,5.47
2023-02-07T09:42:11.686Z,10.38
2023-02-07T09:44:55.426Z,9.70
2023-02-07T09:47:25.590Z,5.38
2023-02-07T09:49:57.835Z,8.70
2023-02-07T09:52:30.706Z,8.55
2023-02-07T09:55:00.852Z,8.48
2023-02-07T09:57:37.797Z,7.03
2023-02-07T10:00:19.763Z,7.60
2023-02-07T10:02:55.502Z,7.60
2023-02-07T10:05:30.812Z,9.98
2023-02-07T10:07:59.242Z,6.20
2023-02-07T10:10:37.691Z,9.63
2023-02-07T10:13:27.702Z,8.00
2023-02-07T10:16:18.176Z,6.63
2023-02-07T10:18:51.010Z,6.95
2023-02-07T10:21:31.003Z,8.48
2023-02-07T10:24:23.060Z,5.60
2023-02-07T10:26:55.337Z,7.15
2023-02-07T10:29:48.794Z,6.38
2023-02-07T10:32:22.069Z,8.90
2023-02-07T10:34:53.679Z,7.20
2023-02-07T10:37:24.825Z,6.72
2023-02-07T10:40:01.392Z,5.68
2023-02-07T10:42:31.782Z,7.22
2023-02-07T10:45:00.177Z,10.18
2023-02-07T10:47:31.067Z,9.52
2023-02-07T10:50:13.836Z,9.07
2023-02-07T10:52:45.331Z,9.07
2023-02-07T10:55:20.127Z,4.65
2023-02-07T10:58:02.741Z,6.25
2023-02-07T11:00:34.372Z,8.73
2023-02-07T11:03:07.006Z,8.15
2023-02-07T11:05:38.832Z,5.05
2023-02-07T11:08:19.939Z,7.85
2023-02-07T11:10:48.453Z,5.80
2023-02-07T11:13:19.433Z,5.60
2023-02-07T11:15:52.127Z,10.23
2023-02-07T11:18:37.479Z,5.78
2023-02-07T11:21:08.505Z,8.00
2023-02-07T11:23:37.123Z,7.70
2023-02-07T11:26:06.259Z,8.45
2023-02-07T11:28:34.873Z,8.45
2023-02-07T11:31:08.943Z,6.40
2023-02-07T11:33:39.179Z,7.43
2023-02-07T11:36:12.950Z,6.00
2023-02-07T11:38:42.897Z,8.65
2023-02-07T11:41:19.570Z,6.07
2023-02-07T11:44:00.438Z,7.25
2023-02-07T11:46:36.213Z,5.95
2023-02-07T11:49:09.149Z,7.25
2023-02-07T11:51:37.737Z,5.22
2023-02-07T11:54:08.440Z,5.28
2023-02-07T11:56:40.764Z,7.35
2023-02-07T11:59:15.351Z,7.07
2023-02-07T12:01:45.023Z,6.80
2023-02-07T12:06:51.128Z,10.05
2023-02-07T12:09:32.286Z,5.07
2023-02-07T12:12:03.546Z,7.18
2023-02-07T12:14:38.007Z,10.30
2023-02-07T12:17:10.812Z,7.18
2023-02-07T12:19:50.705Z,7.95
2023-02-07T12:22:22.496Z,5.65
2023-02-07T12:24:56.104Z,5.78
2023-02-07T12:27:30.075Z,5.78
2023-02-07T12:30:04.608Z,4.75
2023-02-07T12:32:41.307Z,7.63
2023-02-07T12:35:19.728Z,8.45
2023-02-07T12:37:56.114Z,10.52
2023-02-07T12:40:32.227Z,6.80
2023-02-07T12:43:04.901Z,8.50
2023-02-07T12:45:47.009Z,5.60
2023-02-07T12:48:29.289Z,5.13
2023-02-07T12:51:10.995Z,7.88
2023-02-07T12:53:51.406Z,6.32
2023-02-07T12:56:32.323Z,7.05
2023-02-07T12:59:13.087Z,4.60
2023-02-07T13:01:47.646Z,7.95
2023-02-07T13:04:53.002Z,6.30
2023-02-07T13:07:36.519Z,6.50
2023-02-07T13:10:12.884Z,9.15
2023-02-07T13:12:50.579Z,6.65
2023-02-07T13:15:26.970Z,9.18
2023-02-07T13:18:02.591Z,7.45
2023-02-07T13:20:45.444Z,7.25
2023-02-07T13:23:20.328Z,10.00
2023-02-07T13:25:53.183Z,7.22
2023-02-07T13:28:27.432Z,3.65
2023-02-07T13:30:57.380Z,5.47
2023-02-07T13:33:31.819Z,9.82
2023-02-07T13:36:07.112Z,7.38
2023-02-07T13:38:57.582Z,5.13
2023-02-07T13:41:35.335Z,5.05
2023-02-07T13:44:10.893Z,11.93
2023-02-07T13:46:56.387Z,7.38
2023-02-07T13:49:41.222Z,4.03
2023-02-07T13:52:12.917Z,6.07
2023-02-07T13:54:50.198Z,6.72
2023-02-07T13:57:41.016Z,4.85
2023-02-07T14:00:18.782Z,11.93
2023-02-07T14:02:50.526Z,7.35
2023-02-07T14:05:31.623Z,7.60
2023-02-07T14:08:02.975Z,5.85
2023-02-07T14:10:44.711Z,11.05
2023-02-07T14:13:39.906Z,5.95
2023-02-07T14:16:11.098Z,5.00
2023-02-07T14:18:43.141Z,6.75
2023-02-07T14:21:38.626Z,4.78
2023-02-07T14:24:20.248Z,6.45
2023-02-07T14:27:26.364Z,6.32
2023-02-07T14:29:57.852Z,6.45
2023-02-07T14:33:11.018Z,10.00
2023-02-07T14:35:45.611Z,6.47
2023-02-07T14:38:30.406Z,8.00
2023-02-07T14:41:11.201Z,6.28
2023-02-07T14:43:59.706Z,5.60
2023-02-07T14:46:37.827Z,5.32
2023-02-07T14:49:08.681Z,8.25
2023-02-07T14:51:43.890Z,7.90
2023-02-07T14:54:18.865Z,5.80
2023-02-07T14:57:02.638Z,6.88
2023-02-07T14:59:37.345Z,6.47
2023-02-07T15:02:36.612Z,4.47
2023-02-07T15:05:20.191Z,6.72
2023-02-07T15:07:50.285Z,7.43
2023-02-07T15:10:23.941Z,5.63
2023-02-07T15:12:54.181Z,8.55
2023-02-07T15:15:27.153Z,6.00
2023-02-07T15:17:58.981Z,4.93
2023-02-07T15:20:31.647Z,4.55
2023-02-07T15:23:02.265Z,5.43
2023-02-07T15:25:33.072Z,4.68
2023-02-07T15:28:04.314Z,4.70
2023-02-07T15:30:34.505Z,4.60
2023-02-07T15:33:02.753Z,6.30
2023-02-07T15:35:39.595Z,5.78
2023-02-07T15:38:17.988Z,5.82
2023-02-07T15:40:46.378Z,8.63
2023-02-07T15:43:30.832Z,6.03
2023-02-07T15:46:03.121Z,8.20
2023-02-07T15:48:32.542Z,8.52
2023-02-07T15:53:32.027Z,6.10
2023-02-07T15:58:33.430Z,5.47
2023-02-07T16:01:04.377Z,7.97
2023-02-07T16:03:37.322Z,7.13
2023-02-07T16:06:13.298Z,10.60
2023-02-07T16:08:43.681Z,7.25
2023-02-07T16:11:37.002Z,11.43
2023-02-07T16:14:18.543Z,6.30
2023-02-07T16:16:51.727Z,5.72
2023-02-07T16:19:21.665Z,10.38
2023-02-07T16:21:54.089Z,7.70
2023-02-07T16:24:27.545Z,4.15
2023-02-07T16:26:58.510Z,5.30
2023-02-07T16:29:27.872Z,5.55
2023-02-07T16:31:57.957Z,5.22
2023-02-07T16:34:26.436Z,4.20
2023-02-07T16:36:56.315Z,5.43
2023-02-07T16:39:24.670Z,5.95
2023-02-07T16:41:56.144Z,7.28
2023-02-07T16:44:25.893Z,5.47
2023-02-07T16:46:54.101Z,6.07
2023-02-07T16:49:26.132Z,4.95
2023-02-07T16:51:55.745Z,5.68
2023-02-07T16:54:24.304Z,5.65
2023-02-07T16:56:55.415Z,6.20
2023-02-07T16:59:24.879Z,8.68
2023-02-07T17:01:54.629Z,9.55
2023-02-07T17:06:52.664Z,8.90
2023-02-07T17:09:24.110Z,6.30
2023-02-07T17:11:53.209Z,10.93
2023-02-07T17:14:21.748Z,4.65
2023-02-07T17:16:51.738Z,9.02
2023-02-07T17:19:22.997Z,12.35
2023-02-07T17:21:53.440Z,7.43
2023-02-07T17:24:21.700Z,11.73
2023-02-07T17:26:53.493Z,6.72
2023-02-07T17:29:22.255Z,7.80
2023-02-07T17:31:50.543Z,7.53
2023-02-07T17:34:18.906Z,4.78
2023-02-07T17:36:49.330Z,9.73
2023-02-07T17:39:20.621Z,8.15
2023-02-07T17:41:48.943Z,9.23
2023-02-07T17:44:21.381Z,7.18
2023-02-07T17:46:50.208Z,11.63
2023-02-07T17:49:19.022Z,5.65
2023-02-07T17:51:47.405Z,8.37
2023-02-07T17:54:15.875Z,8.15
2023-02-07T17:56:45.697Z,13.85
2023-02-07T17:59:22.346Z,8.55
2023-02-07T18:01:50.664Z,7.50
2023-02-07T18:04:19.008Z,6.32
2023-02-07T18:06:47.854Z,8.68
2023-02-07T18:09:19.893Z,7.87
2023-02-07T18:11:49.788Z,10.98
2023-02-07T18:14:18.069Z,8.63
2023-02-07T18:16:46.534Z,6.55
2023-02-07T18:19:17.518Z,6.25
2023-02-07T18:21:46.152Z,6.40
2023-02-07T18:24:14.784Z,8.52
2023-02-07T18:26:46.685Z,7.57
2023-02-07T18:29:16.500Z,7.28
2023-02-07T18:31:45.169Z,11.38
2023-02-07T18:34:13.439Z,8.25
2023-02-07T18:36:41.578Z,9.23
2023-02-07T18:39:10.833Z,8.82
2023-02-07T18:41:40.014Z,9.52
2023-02-07T18:44:08.526Z,7.28
2023-02-07T18:46:40.070Z,8.73
2023-02-07T18:49:08.816Z,7.28
2023-02-07T18:51:38.728Z,7.00
2023-02-07T18:54:07.491Z,8.32
2023-02-07T18:56:37.181Z,5.80
2023-02-07T18:59:05.937Z,8.73
2023-02-07T19:01:35.305Z,9.13
2023-02-07T19:04:05.220Z,10.55
2023-02-07T19:06:34.855Z,12.13
2023-02-07T19:09:02.999Z,7.63
2023-02-07T19:11:31.263Z,11.10
2023-02-07T19:13:59.358Z,7.57
2023-02-07T19:16:28.010Z,10.73
2023-02-07T19:19:00.941Z,11.00
2023-02-07T19:21:30.910Z,15.00
2023-02-07T19:23:59.707Z,14.43
2023-02-07T19:26:27.965Z,12.50
2023-02-07T19:28:56.089Z,20.70
2023-02-07T19:31:28.985Z,14.00
2023-02-07T19:33:58.370Z,13.65
2023-02-07T19:36:27.828Z,20.33
2023-02-07T19:38:57.394Z,18.77
2023-02-07T19:43:54.523Z,11.32
2023-02-07T19:46:23.369Z,12.10
2023-02-07T19:48:51.935Z,11.85
2023-02-07T19:51:21.469Z,16.33
2023-02-07T19:53:51.248Z,13.38
2023-02-07T19:56:22.718Z,14.70
2023-02-07T19:58:52.684Z,19.02
2023-02-07T20:01:23.627Z,25.02
2023-02-07T20:03:52.870Z,19.63
2023-02-07T20:06:23.791Z,18.42
2023-02-07T20:08:52.725Z,45.35
2023-02-07T20:11:23.161Z,20.83
2023-02-07T20:13:54.766Z,16.20
2023-02-07T20:16:24.645Z,16.73
2023-02-07T20:18:54.548Z,10.18
2023-02-07T20:21:24.764Z,21.90
2023-02-07T20:23:55.209Z,17.17
2023-02-07T20:26:26.822Z,18.05
2023-02-07T20:28:55.601Z,18.42
2023-02-07T20:31:26.867Z,25.90
2023-02-07T20:33:55.183Z,25.20
2023-02-07T20:36:23.339Z,33.53
2023-02-07T20:38:52.242Z,42.50
2023-02-07T20:41:29.985Z,29.42
2023-02-07T20:44:03.690Z,21.67
2023-02-07T20:46:34.382Z,18.90
2023-02-07T20:49:04.600Z,20.75
2023-02-07T20:51:33.265Z,15.60
2023-02-07T20:54:03.001Z,27.90
2023-02-07T20:59:03.163Z,14.02
2023-02-07T21:01:33.306Z,11.38
2023-02-07T21:04:04.137Z,13.63
2023-02-07T21:06:33.033Z,13.32
2023-02-07T21:09:02.767Z,15.70
2023-02-07T21:11:34.965Z,11.05
2023-02-07T21:14:06.100Z,16.15
2023-02-07T21:16:34.762Z,24.75
2023-02-07T21:19:03.312Z,22.42
2023-02-07T21:21:32.145Z,11.95
2023-02-07T21:24:00.548Z,26.17
2023-02-07T21:26:29.248Z,36.13
2023-02-07T21:28:58.734Z,35.85
2023-02-07T21:31:29.194Z,23.42
2023-02-07T21:33:58.176Z,35.42
2023-02-07T21:36:28.303Z,23.48
2023-02-07T21:38:59.425Z,16.92
2023-02-07T21:41:29.831Z,19.15
2023-02-07T21:43:59.061Z,22.08
2023-02-07T21:46:31.402Z,14.63
2023-02-07T21:49:02.461Z,18.05
2023-02-07T21:51:32.367Z,13.20
2023-02-07T21:54:02.164Z,22.73
2023-02-07T21:56:33.250Z,16.13
2023-02-07T21:59:03.355Z,18.13
2023-02-07T22:01:33.669Z,18.98
2023-02-07T22:04:04.474Z,23.98
2023-02-07T22:06:33.235Z,26.73
2023-02-07T22:09:05.069Z,19.03
2023-02-07T22:11:35.990Z,21.13
2023-02-07T22:14:04.841Z,20.17
2023-02-07T22:16:35.373Z,14.68
2023-02-07T22:19:06.696Z,20.98
2023-02-07T22:21:36.655Z,17.05
2023-02-07T22:24:06.534Z,25.90
2023-02-07T22:26:36.254Z,13.57
2023-02-07T22:29:06.452Z,15.65
2023-02-07T22:31:37.936Z,8.90
2023-02-07T22:34:12.277Z,7.47
2023-02-07T22:36:43.050Z,8.73
2023-02-07T22:39:13.488Z,12.18
2023-02-07T22:41:41.839Z,10.27
2023-02-07T22:44:10.140Z,14.10
2023-02-07T22:46:40.230Z,11.13
2023-02-07T22:49:08.706Z,13.23
2023-02-07T22:51:38.386Z,9.00
2023-02-07T22:56:38.203Z,11.65
2023-02-07T22:59:07.117Z,13.02
2023-02-07T23:01:39.043Z,6.25
2023-02-07T23:04:11.666Z,8.52
2023-02-07T23:06:40.174Z,15.07
2023-02-07T23:09:08.811Z,7.15
2023-02-07T23:11:37.687Z,7.55
2023-02-07T23:14:07.106Z,9.45
2023-02-07T23:16:36.758Z,9.23
2023-02-07T23:21:36.554Z,8.43
2023-02-07T23:24:05.019Z,7.18
2023-02-07T23:26:33.810Z,9.68
2023-02-07T23:29:01.980Z,7.50
2023-02-07T23:31:30.369Z,6.68
2023-02-07T23:33:58.669Z,6.85
2023-02-07T23:36:27.223Z,12.98
2023-02-07T23:38:56.732Z,6.88
2023-02-07T23:41:24.935Z,11.25
2023-02-07T23:43:53.086Z,10.00
2023-02-07T23:46:21.209Z,11.43
2023-02-07T23:48:49.947Z,8.32
2023-02-07T23:51:18.227Z,6.67
2023-02-07T23:53:46.976Z,13.10
2023-02-07T23:56:20.116Z,7.43
2023-02-07T23:58:49.685Z,7.15
